sensor_id;sensor_type;location;lat;lon;timestamp;pressure;altitude;pressure_sealevel;temperature;humidity
9439;BME280;5176;42.622;25.386;2023-10-31T00:02:22;97456.34;;;14.09;87.31
9439;BME280;5176;42.622;25.386;2023-10-31T00:04:51;97460.38;;;14.02;89.31
9439;BME280;5176;42.622;25.386;2023-10-31T00:07:18;97456.06;;;14.01;89.57
9439;BME280;5176;42.622;25.386;2023-10-31T00:09:45;97452.22;;;13.94;89.13
9439;BME280;5176;42.622;25.386;2023-10-31T00:12:12;97447.06;;;13.93;89.50
9439;BME280;5176;42.622;25.386;2023-10-31T00:14:40;97449.31;;;13.86;89.31
9439;BME280;5176;42.622;25.386;2023-10-31T00:17:07;97437.91;;;13.85;89.90
9439;BME280;5176;42.622;25.386;2023-10-31T00:19:34;97441.84;;;13.80;89.90
9439;BME280;5176;42.622;25.386;2023-10-31T00:22:03;97448.13;;;13.66;89.94
9439;BME280;5176;42.622;25.386;2023-10-31T00:24:30;97435.59;;;13.57;90.23
9439;BME280;5176;42.622;25.386;2023-10-31T00:26:58;97439.75;;;13.48;90.50
9439;BME280;5176;42.622;25.386;2023-10-31T00:29:25;97434.09;;;13.42;90.97
9439;BME280;5176;42.622;25.386;2023-10-31T00:31:52;97431.78;;;13.37;91.68
9439;BME280;5176;42.622;25.386;2023-10-31T00:34:20;97425.78;;;13.35;91.77
9439;BME280;5176;42.622;25.386;2023-10-31T00:36:47;97431.56;;;13.40;91.25
9439;BME280;5176;42.622;25.386;2023-10-31T00:39:16;97425.91;;;13.33;91.28
9439;BME280;5176;42.622;25.386;2023-10-31T00:41:44;97424.94;;;13.34;90.91
9439;BME280;5176;42.622;25.386;2023-10-31T00:44:12;97427.38;;;13.38;90.60
9439;BME280;5176;42.622;25.386;2023-10-31T00:46:39;97429.78;;;13.41;90.96
9439;BME280;5176;42.622;25.386;2023-10-31T00:49:06;97423.03;;;13.36;91.23
9439;BME280;5176;42.622;25.386;2023-10-31T00:51:33;97422.03;;;13.26;91.75
9439;BME280;5176;42.622;25.386;2023-10-31T00:54:00;97417.38;;;13.30;92.18
9439;BME280;5176;42.622;25.386;2023-10-31T00:56:29;97415.59;;;13.30;92.53
9439;BME280;5176;42.622;25.386;2023-10-31T00:58:56;97410.66;;;13.26;92.31
9439;BME280;5176;42.622;25.386;2023-10-31T01:01:23;97410.16;;;13.21;93.50
9439;BME280;5176;42.622;25.386;2023-10-31T01:03:51;97407.72;;;13.18;93.58
9439;BME280;5176;42.622;25.386;2023-10-31T01:06:18;97407.09;;;13.14;93.70
9439;BME280;5176;42.622;25.386;2023-10-31T01:08:45;97409.06;;;13.23;92.92
9439;BME280;5176;42.622;25.386;2023-10-31T01:11:13;97402.66;;;13.27;92.49
9439;BME280;5176;42.622;25.386;2023-10-31T01:13:42;97403.28;;;13.31;91.94
9439;BME280;5176;42.622;25.386;2023-10-31T01:16:09;97399.59;;;13.33;91.77
9439;BME280;5176;42.622;25.386;2023-10-31T01:18:39;97400.34;;;13.23;92.70
9439;BME280;5176;42.622;25.386;2023-10-31T01:21:06;97402.66;;;13.27;92.58
9439;BME280;5176;42.622;25.386;2023-10-31T01:23:34;97402.53;;;13.29;92.97
9439;BME280;5176;42.622;25.386;2023-10-31T01:26:02;97399.91;;;13.29;93.14
9439;BME280;5176;42.622;25.386;2023-10-31T01:28:29;97399.78;;;13.30;92.04
9439;BME280;5176;42.622;25.386;2023-10-31T01:30:58;97395.16;;;13.34;91.81
9439;BME280;5176;42.622;25.386;2023-10-31T01:33:25;97399.47;;;13.35;91.55
9439;BME280;5176;42.622;25.386;2023-10-31T01:35:52;97396.13;;;13.33;90.88
9439;BME280;5176;42.622;25.386;2023-10-31T01:38:19;97396.63;;;13.38;90.20
9439;BME280;5176;42.622;25.386;2023-10-31T01:40:49;97394.72;;;13.40;89.14
9439;BME280;5176;42.622;25.386;2023-10-31T01:43:29;97388.09;;;13.34;87.81
9439;BME280;5176;42.622;25.386;2023-10-31T01:45:58;97393.47;;;13.33;87.52
9439;BME280;5176;42.622;25.386;2023-10-31T01:48:27;97391.88;;;13.30;86.89
9439;BME280;5176;42.622;25.386;2023-10-31T01:50:55;97379.19;;;13.24;85.97
9439;BME280;5176;42.622;25.386;2023-10-31T01:53:24;97384.66;;;13.21;86.14
9439;BME280;5176;42.622;25.386;2023-10-31T01:55:52;97382.22;;;13.18;86.25
9439;BME280;5176;42.622;25.386;2023-10-31T01:58:21;97389.63;;;13.13;86.51
9439;BME280;5176;42.622;25.386;2023-10-31T02:00:51;97383.63;;;13.11;86.89
9439;BME280;5176;42.622;25.386;2023-10-31T02:03:20;97389.34;;;13.05;87.21
9439;BME280;5176;42.622;25.386;2023-10-31T02:05:47;97388.16;;;12.96;87.18
9439;BME280;5176;42.622;25.386;2023-10-31T02:08:14;97384.81;;;12.94;86.85
9439;BME280;5176;42.622;25.386;2023-10-31T02:10:42;97376.19;;;12.92;86.54
9439;BME280;5176;42.622;25.386;2023-10-31T02:13:12;97377.06;;;12.80;86.80
9439;BME280;5176;42.622;25.386;2023-10-31T02:15:40;97379.56;;;12.81;86.75
9439;BME280;5176;42.622;25.386;2023-10-31T02:18:07;97386.22;;;12.74;87.21
9439;BME280;5176;42.622;25.386;2023-10-31T02:20:37;97378.34;;;12.74;88.21
9439;BME280;5176;42.622;25.386;2023-10-31T02:23:06;97371.69;;;12.69;90.51
9439;BME280;5176;42.622;25.386;2023-10-31T02:25:33;97380.97;;;12.74;92.62
9439;BME280;5176;42.622;25.386;2023-10-31T02:28:00;97374.63;;;12.77;93.32
9439;BME280;5176;42.622;25.386;2023-10-31T02:30:27;97377.06;;;12.80;93.50
9439;BME280;5176;42.622;25.386;2023-10-31T02:32:55;97374.75;;;12.75;93.14
9439;BME280;5176;42.622;25.386;2023-10-31T02:35:22;97386.22;;;12.62;94.46
9439;BME280;5176;42.622;25.386;2023-10-31T02:37:49;97376.56;;;12.49;94.82
9439;BME280;5176;42.622;25.386;2023-10-31T02:40:18;97374.47;;;12.42;94.05
9439;BME280;5176;42.622;25.386;2023-10-31T02:42:45;97371.84;;;12.29;94.12
9439;BME280;5176;42.622;25.386;2023-10-31T02:45:12;97378.28;;;12.25;95.13
9439;BME280;5176;42.622;25.386;2023-10-31T02:47:40;97376.91;;;12.32;94.74
9439;BME280;5176;42.622;25.386;2023-10-31T02:50:08;97373.22;;;12.35;94.42
9439;BME280;5176;42.622;25.386;2023-10-31T02:52:35;97372.69;;;12.30;94.03
9439;BME280;5176;42.622;25.386;2023-10-31T02:55:03;97377.50;;;12.36;93.41
9439;BME280;5176;42.622;25.386;2023-10-31T02:57:32;97385.94;;;12.41;92.05
9439;BME280;5176;42.622;25.386;2023-10-31T03:00:00;97380.38;;;12.45;91.19
9439;BME280;5176;42.622;25.386;2023-10-31T03:02:28;97377.84;;;12.44;89.92
9439;BME280;5176;42.622;25.386;2023-10-31T03:04:55;97384.03;;;12.43;90.73
9439;BME280;5176;42.622;25.386;2023-10-31T03:07:23;97385.50;;;12.34;91.95
9439;BME280;5176;42.622;25.386;2023-10-31T03:09:50;97387.59;;;12.29;94.66
9439;BME280;5176;42.622;25.386;2023-10-31T03:12:18;97380.25;;;12.34;95.25
9439;BME280;5176;42.622;25.386;2023-10-31T03:14:46;97372.47;;;12.33;96.36
9439;BME280;5176;42.622;25.386;2023-10-31T03:17:14;97374.81;;;12.37;96.32
9439;BME280;5176;42.622;25.386;2023-10-31T03:19:41;97374.47;;;12.42;96.48
9439;BME280;5176;42.622;25.386;2023-10-31T03:22:08;97369.22;;;12.42;96.25
9439;BME280;5176;42.622;25.386;2023-10-31T03:24:36;97366.81;;;12.39;95.68
9439;BME280;5176;42.622;25.386;2023-10-31T03:27:03;97361.66;;;12.37;94.76
9439;BME280;5176;42.622;25.386;2023-10-31T03:29:31;97368.19;;;12.32;94.57
9439;BME280;5176;42.622;25.386;2023-10-31T03:32:00;97362.38;;;12.26;93.86
9439;BME280;5176;42.622;25.386;2023-10-31T03:34:27;97347.22;;;12.30;92.90
9439;BME280;5176;42.622;25.386;2023-10-31T03:36:54;97347.34;;;12.28;91.51
9439;BME280;5176;42.622;25.386;2023-10-31T03:39:22;97361.56;;;12.26;90.44
9439;BME280;5176;42.622;25.386;2023-10-31T03:41:49;97352.28;;;12.20;89.09
9439;BME280;5176;42.622;25.386;2023-10-31T03:44:16;97343.75;;;12.17;88.87
9439;BME280;5176;42.622;25.386;2023-10-31T03:46:44;97357.78;;;12.17;89.12
9439;BME280;5176;42.622;25.386;2023-10-31T03:49:13;97357.78;;;12.17;87.90
9439;BME280;5176;42.622;25.386;2023-10-31T03:51:40;97348.50;;;12.12;88.34
9439;BME280;5176;42.622;25.386;2023-10-31T03:54:08;97347.97;;;12.07;90.72
9439;BME280;5176;42.622;25.386;2023-10-31T03:56:39;97351.88;;;12.14;92.92
9439;BME280;5176;42.622;25.386;2023-10-31T03:59:07;97350.81;;;12.16;94.40
9439;BME280;5176;42.622;25.386;2023-10-31T04:01:34;97354.28;;;12.17;94.60
9439;BME280;5176;42.622;25.386;2023-10-31T04:04:01;97347.25;;;12.05;94.12
9439;BME280;5176;42.622;25.386;2023-10-31T04:06:30;97341.47;;;11.99;94.52
9439;BME280;5176;42.622;25.386;2023-10-31T04:08:58;97352.50;;;12.05;93.88
9439;BME280;5176;42.622;25.386;2023-10-31T04:11:25;97355.97;;;12.05;92.94
9439;BME280;5176;42.622;25.386;2023-10-31T04:13:52;97359.53;;;11.91;93.38
9439;BME280;5176;42.622;25.386;2023-10-31T04:16:19;97347.44;;;11.89;92.18
9439;BME280;5176;42.622;25.386;2023-10-31T04:18:47;97350.84;;;11.77;92.37
9439;BME280;5176;42.622;25.386;2023-10-31T04:21:14;97346.34;;;11.79;93.53
9439;BME280;5176;42.622;25.386;2023-10-31T04:23:42;97351.59;;;11.79;94.14
9439;BME280;5176;42.622;25.386;2023-10-31T04:26:09;97353.09;;;11.83;96.58
9439;BME280;5176;42.622;25.386;2023-10-31T04:28:37;97358.03;;;11.87;97.18
9439;BME280;5176;42.622;25.386;2023-10-31T04:31:04;97355.22;;;11.90;96.15
9439;BME280;5176;42.622;25.386;2023-10-31T04:33:31;97341.84;;;11.81;97.92
9439;BME280;5176;42.622;25.386;2023-10-31T04:35:58;97356.31;;;11.73;98.20
9439;BME280;5176;42.622;25.386;2023-10-31T04:38:26;97348.84;;;11.67;97.92
9439;BME280;5176;42.622;25.386;2023-10-31T04:40:55;97351.75;;;11.63;97.73
9439;BME280;5176;42.622;25.386;2023-10-31T04:43:22;97356.50;;;11.58;98.02
9439;BME280;5176;42.622;25.386;2023-10-31T04:45:49;97350.19;;;11.60;98.39
9439;BME280;5176;42.622;25.386;2023-10-31T04:48:16;97356.09;;;11.64;97.73
9439;BME280;5176;42.622;25.386;2023-10-31T04:50:43;97355.16;;;11.65;96.73
9439;BME280;5176;42.622;25.386;2023-10-31T04:53:11;97353.13;;;11.68;96.34
9439;BME280;5176;42.622;25.386;2023-10-31T04:55:38;97355.16;;;11.65;96.30
9439;BME280;5176;42.622;25.386;2023-10-31T04:58:06;97355.00;;;11.54;97.79
9439;BME280;5176;42.622;25.386;2023-10-31T05:00:34;97355.84;;;11.54;98.29
9439;BME280;5176;42.622;25.386;2023-10-31T05:03:01;97357.84;;;11.51;98.41
9439;BME280;5176;42.622;25.386;2023-10-31T05:05:28;97360.53;;;11.49;99.29
9439;BME280;5176;42.622;25.386;2023-10-31T05:07:55;97357.63;;;11.54;98.03
9439;BME280;5176;42.622;25.386;2023-10-31T05:10:23;97362.97;;;11.52;97.83
9439;BME280;5176;42.622;25.386;2023-10-31T05:12:50;97362.34;;;11.49;98.37
9439;BME280;5176;42.622;25.386;2023-10-31T05:15:20;97355.94;;;11.53;99.25
9439;BME280;5176;42.622;25.386;2023-10-31T05:17:47;97360.66;;;11.48;99.44
9439;BME280;5176;42.622;25.386;2023-10-31T05:20:14;97357.19;;;11.47;99.92
9439;BME280;5176;42.622;25.386;2023-10-31T05:22:41;97354.22;;;11.39;100.00
9439;BME280;5176;42.622;25.386;2023-10-31T05:25:08;97354.84;;;11.42;100.00
9439;BME280;5176;42.622;25.386;2023-10-31T05:27:35;97345.19;;;11.43;100.00
9439;BME280;5176;42.622;25.386;2023-10-31T05:30:03;97349.09;;;11.37;100.00
9439;BME280;5176;42.622;25.386;2023-10-31T05:32:32;97347.19;;;11.39;100.00
9439;BME280;5176;42.622;25.386;2023-10-31T05:34:59;97347.94;;;11.41;100.00
9439;BME280;5176;42.622;25.386;2023-10-31T05:37:26;97355.28;;;11.49;100.00
9439;BME280;5176;42.622;25.386;2023-10-31T05:39:53;97351.25;;;11.58;100.00
9439;BME280;5176;42.622;25.386;2023-10-31T05:42:21;97346.31;;;11.66;100.00
9439;BME280;5176;42.622;25.386;2023-10-31T05:44:48;97346.53;;;11.76;100.00
9439;BME280;5176;42.622;25.386;2023-10-31T05:47:15;97350.06;;;11.89;100.00
9439;BME280;5176;42.622;25.386;2023-10-31T05:49:44;97329.25;;;11.86;100.00
9439;BME280;5176;42.622;25.386;2023-10-31T05:52:11;97351.56;;;12.06;100.00
9439;BME280;5176;42.622;25.386;2023-10-31T05:54:38;97356.19;;;12.15;100.00
9439;BME280;5176;42.622;25.386;2023-10-31T05:57:06;97358.19;;;12.24;100.00
9439;BME280;5176;42.622;25.386;2023-10-31T05:59:33;97351.22;;;12.36;100.00
9439;BME280;5176;42.622;25.386;2023-10-31T06:02:00;97360.19;;;12.46;100.00
9439;BME280;5176;42.622;25.386;2023-10-31T06:04:27;97353.66;;;12.51;100.00
9439;BME280;5176;42.622;25.386;2023-10-31T06:06:55;97356.38;;;12.50;100.00
9439;BME280;5176;42.622;25.386;2023-10-31T06:09:22;97350.13;;;12.64;100.00
9439;BME280;5176;42.622;25.386;2023-10-31T06:11:49;97356.56;;;12.72;100.00
9439;BME280;5176;42.622;25.386;2023-10-31T06:14:16;97355.59;;;12.86;100.00
9439;BME280;5176;42.622;25.386;2023-10-31T06:16:44;97356.81;;;12.93;100.00
9439;BME280;5176;42.622;25.386;2023-10-31T06:19:11;97356.06;;;13.04;100.00
9439;BME280;5176;42.622;25.386;2023-10-31T06:21:38;97362.34;;;13.14;100.00
9439;BME280;5176;42.622;25.386;2023-10-31T06:24:08;97360.84;;;13.23;100.00
9439;BME280;5176;42.622;25.386;2023-10-31T06:26:35;97351.22;;;13.34;100.00
9439;BME280;5176;42.622;25.386;2023-10-31T06:29:03;97323.78;;;13.26;100.00
9439;BME280;5176;42.622;25.386;2023-10-31T06:31:30;97360.44;;;13.64;100.00
9439;BME280;5176;42.622;25.386;2023-10-31T06:33:57;97354.66;;;13.83;100.00
9439;BME280;5176;42.622;25.386;2023-10-31T06:36:24;97358.53;;;14.01;99.27
9439;BME280;5176;42.622;25.386;2023-10-31T06:38:51;97355.09;;;14.12;99.41
9439;BME280;5176;42.622;25.386;2023-10-31T06:41:20;97357.28;;;14.29;98.83
9439;BME280;5176;42.622;25.386;2023-10-31T06:43:47;97349.78;;;14.47;98.35
9439;BME280;5176;42.622;25.386;2023-10-31T06:46:15;97358.06;;;14.65;97.46
9439;BME280;5176;42.622;25.386;2023-10-31T06:48:42;97357.56;;;14.82;97.44
9439;BME280;5176;42.622;25.386;2023-10-31T06:51:09;97357.78;;;15.02;96.62
9439;BME280;5176;42.622;25.386;2023-10-31T06:53:36;97353.91;;;15.17;95.45
9439;BME280;5176;42.622;25.386;2023-10-31T06:56:04;97359.66;;;15.33;93.91
9439;BME280;5176;42.622;25.386;2023-10-31T06:58:32;97363.81;;;15.47;93.65
9439;BME280;5176;42.622;25.386;2023-10-31T07:01:00;97337.38;;;15.47;93.02
9439;BME280;5176;42.622;25.386;2023-10-31T07:03:27;97355.06;;;15.78;91.85
9439;BME280;5176;42.622;25.386;2023-10-31T07:05:54;97355.72;;;15.92;90.65
9439;BME280;5176;42.622;25.386;2023-10-31T07:08:22;97360.28;;;15.90;89.35
9439;BME280;5176;42.622;25.386;2023-10-31T07:10:49;97358.16;;;16.04;89.23
9439;BME280;5176;42.622;25.386;2023-10-31T07:13:16;97363.25;;;16.17;88.26
9439;BME280;5176;42.622;25.386;2023-10-31T07:15:45;97358.03;;;16.27;88.53
9439;BME280;5176;42.622;25.386;2023-10-31T07:18:12;97353.69;;;16.47;87.29
9439;BME280;5176;42.622;25.386;2023-10-31T07:20:39;97364.19;;;16.58;84.68
9439;BME280;5176;42.622;25.386;2023-10-31T07:23:07;97357.97;;;16.69;84.41
9439;BME280;5176;42.622;25.386;2023-10-31T07:25:34;97351.50;;;16.82;83.82
9439;BME280;5176;42.622;25.386;2023-10-31T07:28:02;97349.84;;;16.91;83.91
9439;BME280;5176;42.622;25.386;2023-10-31T07:30:29;97345.69;;;16.98;83.35
9439;BME280;5176;42.622;25.386;2023-10-31T07:32:57;97348.94;;;17.11;81.39
9439;BME280;5176;42.622;25.386;2023-10-31T07:35:24;97346.31;;;17.21;80.83
9439;BME280;5176;42.622;25.386;2023-10-31T07:37:51;97344.09;;;17.36;82.10
9439;BME280;5176;42.622;25.386;2023-10-31T07:40:19;97341.78;;;17.52;81.45
9439;BME280;5176;42.622;25.386;2023-10-31T07:42:46;97342.19;;;17.67;79.30
9439;BME280;5176;42.622;25.386;2023-10-31T07:45:13;97336.50;;;17.81;78.47
9439;BME280;5176;42.622;25.386;2023-10-31T07:47:40;97337.19;;;17.93;77.54
9439;BME280;5176;42.622;25.386;2023-10-31T07:50:09;97337.16;;;18.03;76.82
9439;BME280;5176;42.622;25.386;2023-10-31T07:52:36;97329.59;;;18.17;74.81
9439;BME280;5176;42.622;25.386;2023-10-31T07:55:04;97328.31;;;18.31;73.65
9439;BME280;5176;42.622;25.386;2023-10-31T07:57:32;97324.22;;;18.46;73.14
9439;BME280;5176;42.622;25.386;2023-10-31T07:59:59;97318.44;;;18.61;72.04
9439;BME280;5176;42.622;25.386;2023-10-31T08:02:26;97311.28;;;18.71;70.68
9439;BME280;5176;42.622;25.386;2023-10-31T08:04:53;97322.38;;;18.94;69.06
9439;BME280;5176;42.622;25.386;2023-10-31T08:07:22;97312.34;;;19.05;68.94
9439;BME280;5176;42.622;25.386;2023-10-31T08:09:49;97317.19;;;19.20;67.70
9439;BME280;5176;42.622;25.386;2023-10-31T08:12:17;97317.34;;;19.36;65.68
9439;BME280;5176;42.622;25.386;2023-10-31T08:14:44;97310.16;;;19.46;66.08
9439;BME280;5176;42.622;25.386;2023-10-31T08:17:11;97307.56;;;19.54;65.70
9439;BME280;5176;42.622;25.386;2023-10-31T08:19:39;97301.19;;;19.65;65.06
9439;BME280;5176;42.622;25.386;2023-10-31T08:22:06;97306.66;;;19.81;64.83
9439;BME280;5176;42.622;25.386;2023-10-31T08:24:34;97302.78;;;19.94;64.52
9439;BME280;5176;42.622;25.386;2023-10-31T08:27:02;97303.72;;;20.10;63.16
9439;BME280;5176;42.622;25.386;2023-10-31T08:29:30;97295.50;;;20.22;62.45
9439;BME280;5176;42.622;25.386;2023-10-31T08:31:57;97294.69;;;20.29;62.66
9439;BME280;5176;42.622;25.386;2023-10-31T08:34:24;97298.25;;;20.38;61.26
9439;BME280;5176;42.622;25.386;2023-10-31T08:36:51;97287.81;;;20.45;61.55
9439;BME280;5176;42.622;25.386;2023-10-31T08:42:42;97279.97;;;20.69;59.89
9439;BME280;5176;42.622;25.386;2023-10-31T08:45:10;97282.66;;;20.77;59.85
9439;BME280;5176;42.622;25.386;2023-10-31T08:47:37;97268.38;;;20.86;59.54
9439;BME280;5176;42.622;25.386;2023-10-31T08:50:05;97264.09;;;21.02;59.45
9439;BME280;5176;42.622;25.386;2023-10-31T08:52:34;97259.97;;;21.15;58.45
9439;BME280;5176;42.622;25.386;2023-10-31T08:55:01;97263.84;;;21.29;57.61
9439;BME280;5176;42.622;25.386;2023-10-31T08:57:30;97256.38;;;21.41;57.47
9439;BME280;5176;42.622;25.386;2023-10-31T08:59:58;97246.88;;;21.55;56.80
9439;BME280;5176;42.622;25.386;2023-10-31T09:02:26;97241.19;;;21.66;57.02
9439;BME280;5176;42.622;25.386;2023-10-31T09:04:53;97234.03;;;21.74;56.29
9439;BME280;5176;42.622;25.386;2023-10-31T09:07:20;97226.03;;;21.83;55.99
9439;BME280;5176;42.622;25.386;2023-10-31T09:09:47;97228.34;;;21.86;55.48
9439;BME280;5176;42.622;25.386;2023-10-31T09:12:15;97215.31;;;21.91;54.94
9439;BME280;5176;42.622;25.386;2023-10-31T09:14:42;97207.16;;;21.92;55.46
9439;BME280;5176;42.622;25.386;2023-10-31T09:17:11;97202.94;;;22.06;54.71
9439;BME280;5176;42.622;25.386;2023-10-31T09:19:38;97207.81;;;22.11;53.58
9439;BME280;5176;42.622;25.386;2023-10-31T09:22:05;97198.28;;;22.16;54.21
9439;BME280;5176;42.622;25.386;2023-10-31T09:24:33;97196.78;;;22.22;54.14
9439;BME280;5176;42.622;25.386;2023-10-31T09:27:00;97198.06;;;22.34;53.90
9439;BME280;5176;42.622;25.386;2023-10-31T09:29:27;97178.34;;;22.43;53.95
9439;BME280;5176;42.622;25.386;2023-10-31T09:31:54;97178.78;;;22.55;53.33
9439;BME280;5176;42.622;25.386;2023-10-31T09:34:23;97173.72;;;22.68;53.25
9439;BME280;5176;42.622;25.386;2023-10-31T09:36:50;97169.28;;;22.83;52.80
9439;BME280;5176;42.622;25.386;2023-10-31T09:39:19;97164.28;;;22.89;53.10
9439;BME280;5176;42.622;25.386;2023-10-31T09:41:49;97163.84;;;23.00;52.71
9439;BME280;5176;42.622;25.386;2023-10-31T09:44:16;97160.94;;;23.09;51.34
9439;BME280;5176;42.622;25.386;2023-10-31T09:46:44;97165.34;;;23.25;51.56
9439;BME280;5176;42.622;25.386;2023-10-31T09:49:12;97159.75;;;23.35;51.75
9439;BME280;5176;42.622;25.386;2023-10-31T09:51:41;97150.28;;;23.47;50.68
9439;BME280;5176;42.622;25.386;2023-10-31T09:54:09;97150.84;;;23.57;50.12
9439;BME280;5176;42.622;25.386;2023-10-31T09:56:39;97147.28;;;23.65;49.43
9439;BME280;5176;42.622;25.386;2023-10-31T09:59:06;97140.78;;;23.68;49.74
9439;BME280;5176;42.622;25.386;2023-10-31T10:01:33;97126.47;;;23.75;49.26
9439;BME280;5176;42.622;25.386;2023-10-31T10:04:00;97125.06;;;23.79;48.94
9439;BME280;5176;42.622;25.386;2023-10-31T10:06:28;97127.09;;;23.92;49.19
9439;BME280;5176;42.622;25.386;2023-10-31T10:08:57;97118.16;;;24.00;48.11
9439;BME280;5176;42.622;25.386;2023-10-31T10:11:24;97118.63;;;24.03;47.58
9439;BME280;5176;42.622;25.386;2023-10-31T10:13:52;97112.78;;;24.00;47.87
9439;BME280;5176;42.622;25.386;2023-10-31T10:16:28;97098.88;;;23.89;47.43
9439;BME280;5176;42.622;25.386;2023-10-31T10:18:56;97110.06;;;24.08;47.45
9439;BME280;5176;42.622;25.386;2023-10-31T10:21:23;97110.78;;;24.16;47.18
9439;BME280;5176;42.622;25.386;2023-10-31T10:23:51;97104.19;;;24.19;47.38
9439;BME280;5176;42.622;25.386;2023-10-31T10:26:21;97101.25;;;24.14;46.59
9439;BME280;5176;42.622;25.386;2023-10-31T10:28:51;97101.91;;;24.16;46.46
9439;BME280;5176;42.622;25.386;2023-10-31T10:31:19;97096.81;;;24.21;46.51
9439;BME280;5176;42.622;25.386;2023-10-31T10:33:46;97095.16;;;24.20;46.40
9439;BME280;5176;42.622;25.386;2023-10-31T10:36:13;97092.53;;;24.27;45.90
9439;BME280;5176;42.622;25.386;2023-10-31T10:38:42;97093.75;;;24.24;45.93
9439;BME280;5176;42.622;25.386;2023-10-31T10:41:13;97089.31;;;24.31;46.16
9439;BME280;5176;42.622;25.386;2023-10-31T10:43:44;97072.91;;;24.34;45.97
9439;BME280;5176;42.622;25.386;2023-10-31T10:46:15;97071.06;;;24.35;45.60
9439;BME280;5176;42.622;25.386;2023-10-31T10:48:46;97063.84;;;24.35;46.14
9439;BME280;5176;42.622;25.386;2023-10-31T10:51:18;97060.97;;;24.37;45.70
9439;BME280;5176;42.622;25.386;2023-10-31T10:53:49;97053.22;;;24.42;45.48
9439;BME280;5176;42.622;25.386;2023-10-31T10:56:22;97041.91;;;24.46;45.25
9439;BME280;5176;42.622;25.386;2023-10-31T10:58:58;97040.31;;;24.52;45.04
9439;BME280;5176;42.622;25.386;2023-10-31T11:01:28;97042.94;;;24.45;44.96
9439;BME280;5176;42.622;25.386;2023-10-31T11:03:56;97033.81;;;24.40;44.99
9439;BME280;5176;42.622;25.386;2023-10-31T11:06:24;97033.03;;;24.46;45.12
9439;BME280;5176;42.622;25.386;2023-10-31T11:08:53;97017.44;;;24.50;44.46
9439;BME280;5176;42.622;25.386;2023-10-31T11:11:22;97006.31;;;24.53;44.61
9439;BME280;5176;42.622;25.386;2023-10-31T11:13:50;97017.31;;;24.58;43.83
9439;BME280;5176;42.622;25.386;2023-10-31T11:16:24;97005.28;;;24.54;43.83
9439;BME280;5176;42.622;25.386;2023-10-31T11:18:53;97003.44;;;24.54;43.96
9439;BME280;5176;42.622;25.386;2023-10-31T11:21:22;97009.06;;;24.59;43.48
9439;BME280;5176;42.622;25.386;2023-10-31T11:23:57;97011.75;;;24.59;43.57
9439;BME280;5176;42.622;25.386;2023-10-31T11:26:26;97005.81;;;24.64;43.67
9439;BME280;5176;42.622;25.386;2023-10-31T11:29:03;97004.28;;;24.76;43.56
9439;BME280;5176;42.622;25.386;2023-10-31T11:31:32;96998.94;;;24.76;42.64
9439;BME280;5176;42.622;25.386;2023-10-31T11:34:01;97000.38;;;24.79;42.76
9439;BME280;5176;42.622;25.386;2023-10-31T11:36:30;96993.16;;;24.79;42.66
9439;BME280;5176;42.622;25.386;2023-10-31T11:39:11;96994.19;;;24.78;42.50
9439;BME280;5176;42.622;25.386;2023-10-31T11:41:40;96993.09;;;24.72;42.19
9439;BME280;5176;42.622;25.386;2023-10-31T11:44:07;96990.00;;;24.69;42.49
9439;BME280;5176;42.622;25.386;2023-10-31T11:46:36;96989.59;;;24.72;42.43
9439;BME280;5176;42.622;25.386;2023-10-31T11:49:03;96989.66;;;24.79;42.37
9439;BME280;5176;42.622;25.386;2023-10-31T11:51:31;96973.63;;;24.85;42.67
9439;BME280;5176;42.622;25.386;2023-10-31T11:53:59;96981.78;;;24.98;42.37
9439;BME280;5176;42.622;25.386;2023-10-31T11:56:27;96977.44;;;24.97;42.02
9439;BME280;5176;42.622;25.386;2023-10-31T11:58:56;96958.88;;;24.96;41.88
9439;BME280;5176;42.622;25.386;2023-10-31T12:01:23;96973.38;;;25.02;41.78
9439;BME280;5176;42.622;25.386;2023-10-31T12:03:55;96969.00;;;25.00;41.74
9439;BME280;5176;42.622;25.386;2023-10-31T12:06:22;96968.00;;;25.02;41.55
9439;BME280;5176;42.622;25.386;2023-10-31T12:08:49;96961.97;;;24.99;41.64
9439;BME280;5176;42.622;25.386;2023-10-31T12:11:17;96953.00;;;25.07;41.66
9439;BME280;5176;42.622;25.386;2023-10-31T12:13:56;96954.00;;;25.06;41.50
9439;BME280;5176;42.622;25.386;2023-10-31T12:16:26;96956.75;;;25.13;41.64
9439;BME280;5176;42.622;25.386;2023-10-31T12:18:57;96950.50;;;25.06;41.38
9439;BME280;5176;42.622;25.386;2023-10-31T12:21:35;96957.16;;;25.10;41.51
9439;BME280;5176;42.622;25.386;2023-10-31T12:24:04;96951.59;;;25.11;41.69
9439;BME280;5176;42.622;25.386;2023-10-31T12:26:32;96958.81;;;25.11;41.48
9439;BME280;5176;42.622;25.386;2023-10-31T12:29:07;96951.34;;;25.06;41.34
9439;BME280;5176;42.622;25.386;2023-10-31T12:31:35;96951.09;;;25.01;41.85
9439;BME280;5176;42.622;25.386;2023-10-31T12:34:07;96934.25;;;24.86;41.84
9439;BME280;5176;42.622;25.386;2023-10-31T12:36:35;96945.03;;;24.92;41.99
9439;BME280;5176;42.622;25.386;2023-10-31T12:39:04;96946.91;;;24.98;41.99
9439;BME280;5176;42.622;25.386;2023-10-31T12:41:35;96941.13;;;24.95;41.86
9439;BME280;5176;42.622;25.386;2023-10-31T12:44:03;96938.78;;;24.85;42.37
9439;BME280;5176;42.622;25.386;2023-10-31T12:46:31;96933.00;;;24.82;42.23
9439;BME280;5176;42.622;25.386;2023-10-31T12:49:00;96927.63;;;24.82;42.29
9439;BME280;5176;42.622;25.386;2023-10-31T12:51:29;96913.56;;;24.80;42.31
9439;BME280;5176;42.622;25.386;2023-10-31T12:53:56;96922.06;;;24.83;41.74
9439;BME280;5176;42.622;25.386;2023-10-31T12:56:39;96929.91;;;24.85;42.31
9439;BME280;5176;42.622;25.386;2023-10-31T12:59:08;96919.34;;;24.77;42.16
9439;BME280;5176;42.622;25.386;2023-10-31T13:01:36;96912.69;;;24.72;42.17
9439;BME280;5176;42.622;25.386;2023-10-31T13:04:04;96915.63;;;24.78;42.33
9439;BME280;5176;42.622;25.386;2023-10-31T13:06:33;96908.63;;;24.77;42.20
9439;BME280;5176;42.622;25.386;2023-10-31T13:09:01;96915.41;;;24.51;42.23
9439;BME280;5176;42.622;25.386;2023-10-31T13:11:31;96915.50;;;24.36;42.76
9439;BME280;5176;42.622;25.386;2023-10-31T13:13:59;96899.84;;;24.18;43.09
9439;BME280;5176;42.622;25.386;2023-10-31T13:16:27;96913.19;;;24.33;42.90
9439;BME280;5176;42.622;25.386;2023-10-31T13:18:55;96914.38;;;24.31;42.57